Knowles, WI

11:23 PM CST on February 27, 2015 (GMT -0600)
W9BRY -Barry | Change Station
CLOSE
Current Station
Personal Weather Station
Location: Ashford, WI
Elevation: 1060 ft
Nearby Weather Stations

Elev 1060 ft 43.59 °N, 88.37 °W | Updated 11 seconds ago

Clear
Clear
0.7 °F
Feels Like -11 °F
N
5.8
Wind Variable Wind from WNW
Gusts 5.8 mph

Today
High -- | Low -- °F
--% Chance of Precip.
Yesterday
High -- | Low -- °F
Precip. -- in
6:33 AM 5:39 PM
Waxing Gibbous, 74% visible
Pressure 30.64 in
Visibility 10.0 miles
Clouds Clear
Windchill -11 °F
Dew Point -19 °F
Humidity 38%
Rainfall 0.00 in
Snow Depth Not available.
UV 0 out of 12
Pollen .40 out of 12
Air Quality Not available.
Flu Activity Not available.
METAR KFLD 280453Z AUTO 22006KT 10SM CLR M14/M21 A3058 RMK AO2 SLP376 T11441206

More Conditions Fewer Conditions

Pressure 30.64 in
Visibility 10.0 miles
Clouds Clear
Windchill -11 °F
Dew Point -19 °F
Humidity 38%
Rainfall 0.00 in
Snow Depth Not available.
UV 0 out of 12
Pollen .40 out of 12
Air Quality Not available.
Flu Activity Not available.
METAR KFLD 280453Z AUTO 22006KT 10SM CLR M14/M21 A3058 RMK AO2 SLP376 T11441206

More Conditions Fewer Conditions

10-Day Weather Forecast

Almanac

Astronomy

Feb. 27, 2015 Rise Set
Actual Time
Civil Twilight
Nautical Twilight
Astronomical Twilight
Moon
Length of Visible Light
Length of Day
Tomorrow will be .
, % of the Moon is Illuminated

Today's Extremes

State Highs State Lows

Community

WunderPhotos

Upload Photos

1,800,973 photos uploaded!

WunderBlogs® & News

Nearby

Air Quality

  Air Quality AQ Index Pollutant
Not available.

Snow Depth

Station Depth Elevation

Earthquake Activity

City Distance Mag. Time & Date
Minimum magnitude displayed is 2.5.

Coastal Water Temperatures

Place Temperature

Nearby Weather Stations